sensor_id;sensor_type;location;lat;lon;timestamp;P1;durP1;ratioP1;P2;durP2;ratioP2
67528;SDS011;54366;51.980;5.856;2023-08-17T00:00:21;2.22;;;0.65;;
67528;SDS011;54366;51.980;5.856;2023-08-17T00:02:54;4.32;;;1.42;;
67528;SDS011;54366;51.980;5.856;2023-08-17T00:05:27;2.78;;;1.20;;
67528;SDS011;54366;51.980;5.856;2023-08-17T00:07:53;2.20;;;1.10;;
67528;SDS011;54366;51.980;5.856;2023-08-17T00:10:26;3.13;;;1.00;;
67528;SDS011;54366;51.980;5.856;2023-08-17T00:12:59;3.75;;;1.20;;
67528;SDS011;54366;51.980;5.856;2023-08-17T00:15:25;1.13;;;0.70;;
67528;SDS011;54366;51.980;5.856;2023-08-17T00:17:58;2.85;;;1.20;;
67528;SDS011;54366;51.980;5.856;2023-08-17T00:20:31;2.30;;;1.10;;
67528;SDS011;54366;51.980;5.856;2023-08-17T00:23:04;2.08;;;0.95;;
67528;SDS011;54366;51.980;5.856;2023-08-17T00:25:37;1.65;;;0.80;;
67528;SDS011;54366;51.980;5.856;2023-08-17T00:28:17;2.63;;;1.52;;
67528;SDS011;54366;51.980;5.856;2023-08-17T00:30:43;2.15;;;1.00;;
67528;SDS011;54366;51.980;5.856;2023-08-17T00:33:17;2.25;;;1.20;;
67528;SDS011;54366;51.980;5.856;2023-08-17T00:35:50;3.08;;;0.80;;
67528;SDS011;54366;51.980;5.856;2023-08-17T00:38:25;3.38;;;1.42;;
67528;SDS011;54366;51.980;5.856;2023-08-17T00:40:58;2.70;;;1.35;;
67528;SDS011;54366;51.980;5.856;2023-08-17T00:43:31;2.13;;;0.73;;
67528;SDS011;54366;51.980;5.856;2023-08-17T00:45:57;2.60;;;1.20;;
67528;SDS011;54366;51.980;5.856;2023-08-17T00:48:30;2.80;;;1.20;;
67528;SDS011;54366;51.980;5.856;2023-08-17T00:50:57;3.88;;;1.52;;
67528;SDS011;54366;51.980;5.856;2023-08-17T00:56:04;2.25;;;0.90;;
67528;SDS011;54366;51.980;5.856;2023-08-17T00:58:37;2.88;;;1.20;;
67528;SDS011;54366;51.980;5.856;2023-08-17T01:01:10;2.45;;;1.20;;
67528;SDS011;54366;51.980;5.856;2023-08-17T01:03:43;2.10;;;1.10;;
67528;SDS011;54366;51.980;5.856;2023-08-17T01:06:09;1.45;;;0.93;;
67528;SDS011;54366;51.980;5.856;2023-08-17T01:08:42;2.90;;;1.08;;
67528;SDS011;54366;51.980;5.856;2023-08-17T01:11:36;2.17;;;1.00;;
67528;SDS011;54366;51.980;5.856;2023-08-17T01:14:18;1.40;;;0.80;;
67528;SDS011;54366;51.980;5.856;2023-08-17T01:17:31;2.17;;;1.42;;
67528;SDS011;54366;51.980;5.856;2023-08-17T01:20:11;2.47;;;1.05;;
67528;SDS011;54366;51.980;5.856;2023-08-17T01:22:48;3.55;;;1.60;;
67528;SDS011;54366;51.980;5.856;2023-08-17T01:25:30;2.78;;;1.02;;
67528;SDS011;54366;51.980;5.856;2023-08-17T01:28:08;1.98;;;1.13;;
67528;SDS011;54366;51.980;5.856;2023-08-17T01:30:47;2.05;;;0.90;;
67528;SDS011;54366;51.980;5.856;2023-08-17T01:33:31;2.78;;;1.25;;
67528;SDS011;54366;51.980;5.856;2023-08-17T01:36:22;3.85;;;1.58;;
67528;SDS011;54366;51.980;5.856;2023-08-17T01:39:09;3.95;;;1.52;;
67528;SDS011;54366;51.980;5.856;2023-08-17T01:41:43;4.22;;;1.05;;
67528;SDS011;54366;51.980;5.856;2023-08-17T01:44:12;2.55;;;1.27;;
67528;SDS011;54366;51.980;5.856;2023-08-17T01:46:45;3.50;;;1.57;;
67528;SDS011;54366;51.980;5.856;2023-08-17T01:49:11;3.38;;;1.50;;
67528;SDS011;54366;51.980;5.856;2023-08-17T01:51:44;2.90;;;1.30;;
67528;SDS011;54366;51.980;5.856;2023-08-17T01:54:17;3.97;;;1.60;;
67528;SDS011;54366;51.980;5.856;2023-08-17T01:56:43;4.47;;;1.63;;
67528;SDS011;54366;51.980;5.856;2023-08-17T01:59:17;2.20;;;1.52;;
67528;SDS011;54366;51.980;5.856;2023-08-17T02:01:50;2.50;;;1.30;;
67528;SDS011;54366;51.980;5.856;2023-08-17T02:04:16;3.78;;;1.40;;
67528;SDS011;54366;51.980;5.856;2023-08-17T02:06:49;2.50;;;1.40;;
67528;SDS011;54366;51.980;5.856;2023-08-17T02:09:22;4.68;;;1.42;;
67528;SDS011;54366;51.980;5.856;2023-08-17T02:11:49;4.60;;;1.60;;
67528;SDS011;54366;51.980;5.856;2023-08-17T02:14:21;2.83;;;1.48;;
67528;SDS011;54366;51.980;5.856;2023-08-17T02:16:54;5.45;;;1.95;;
67528;SDS011;54366;51.980;5.856;2023-08-17T02:19:27;4.75;;;1.75;;
67528;SDS011;54366;51.980;5.856;2023-08-17T02:22:01;3.47;;;1.50;;
67528;SDS011;54366;51.980;5.856;2023-08-17T02:24:34;3.67;;;1.38;;
67528;SDS011;54366;51.980;5.856;2023-08-17T02:27:14;3.58;;;1.10;;
67528;SDS011;54366;51.980;5.856;2023-08-17T02:29:40;3.50;;;1.55;;
67528;SDS011;54366;51.980;5.856;2023-08-17T02:32:13;3.70;;;1.55;;
67528;SDS011;54366;51.980;5.856;2023-08-17T02:34:46;3.60;;;1.23;;
67528;SDS011;54366;51.980;5.856;2023-08-17T02:37:19;2.33;;;1.20;;
67528;SDS011;54366;51.980;5.856;2023-08-17T02:39:52;2.53;;;1.30;;
67528;SDS011;54366;51.980;5.856;2023-08-17T02:42:25;2.70;;;1.50;;
67528;SDS011;54366;51.980;5.856;2023-08-17T02:44:58;2.80;;;1.48;;
67528;SDS011;54366;51.980;5.856;2023-08-17T02:47:31;3.08;;;1.38;;
67528;SDS011;54366;51.980;5.856;2023-08-17T02:50:04;4.00;;;1.20;;
67528;SDS011;54366;51.980;5.856;2023-08-17T02:52:37;3.28;;;1.30;;
67528;SDS011;54366;51.980;5.856;2023-08-17T02:55:10;3.53;;;1.30;;
67528;SDS011;54366;51.980;5.856;2023-08-17T02:57:43;2.88;;;1.50;;
67528;SDS011;54366;51.980;5.856;2023-08-17T03:00:16;2.42;;;1.05;;
67528;SDS011;54366;51.980;5.856;2023-08-17T03:02:42;3.53;;;1.45;;
67528;SDS011;54366;51.980;5.856;2023-08-17T03:05:15;2.88;;;1.33;;
67528;SDS011;54366;51.980;5.856;2023-08-17T03:07:48;1.83;;;1.07;;
67528;SDS011;54366;51.980;5.856;2023-08-17T03:10:21;3.00;;;1.48;;
67528;SDS011;54366;51.980;5.856;2023-08-17T03:12:55;2.53;;;1.20;;
67528;SDS011;54366;51.980;5.856;2023-08-17T03:15:21;2.25;;;1.27;;
67528;SDS011;54366;51.980;5.856;2023-08-17T03:17:54;4.22;;;1.42;;
67528;SDS011;54366;51.980;5.856;2023-08-17T03:20:27;2.95;;;1.38;;
67528;SDS011;54366;51.980;5.856;2023-08-17T03:23:06;4.57;;;1.15;;
67528;SDS011;54366;51.980;5.856;2023-08-17T03:25:50;2.35;;;1.30;;
67528;SDS011;54366;51.980;5.856;2023-08-17T03:28:24;2.15;;;1.35;;
67528;SDS011;54366;51.980;5.856;2023-08-17T03:30:55;5.35;;;1.85;;
67528;SDS011;54366;51.980;5.856;2023-08-17T03:33:28;2.78;;;1.48;;
67528;SDS011;54366;51.980;5.856;2023-08-17T03:36:01;4.95;;;1.58;;
67528;SDS011;54366;51.980;5.856;2023-08-17T03:38:34;3.65;;;1.40;;
67528;SDS011;54366;51.980;5.856;2023-08-17T03:41:07;2.70;;;1.63;;
67528;SDS011;54366;51.980;5.856;2023-08-17T03:43:40;2.90;;;1.58;;
67528;SDS011;54366;51.980;5.856;2023-08-17T03:46:13;4.10;;;1.40;;
67528;SDS011;54366;51.980;5.856;2023-08-17T03:48:46;4.30;;;1.40;;
67528;SDS011;54366;51.980;5.856;2023-08-17T03:51:12;3.47;;;1.98;;
67528;SDS011;54366;51.980;5.856;2023-08-17T03:53:45;3.88;;;1.65;;
67528;SDS011;54366;51.980;5.856;2023-08-17T03:56:18;3.30;;;1.75;;
67528;SDS011;54366;51.980;5.856;2023-08-17T03:58:44;3.75;;;1.70;;
67528;SDS011;54366;51.980;5.856;2023-08-17T04:01:17;6.65;;;2.00;;
67528;SDS011;54366;51.980;5.856;2023-08-17T04:03:50;4.20;;;2.00;;
67528;SDS011;54366;51.980;5.856;2023-08-17T04:06:23;4.80;;;1.60;;
67528;SDS011;54366;51.980;5.856;2023-08-17T04:08:49;2.25;;;1.27;;
67528;SDS011;54366;51.980;5.856;2023-08-17T04:11:22;5.65;;;1.77;;
67528;SDS011;54366;51.980;5.856;2023-08-17T04:13:55;3.60;;;1.50;;
67528;SDS011;54366;51.980;5.856;2023-08-17T04:16:28;4.43;;;1.40;;
67528;SDS011;54366;51.980;5.856;2023-08-17T04:19:02;4.38;;;1.08;;
67528;SDS011;54366;51.980;5.856;2023-08-17T04:21:35;2.38;;;1.15;;
67528;SDS011;54366;51.980;5.856;2023-08-17T04:24:02;4.25;;;1.60;;
67528;SDS011;54366;51.980;5.856;2023-08-17T04:26:42;4.63;;;1.40;;
67528;SDS011;54366;51.980;5.856;2023-08-17T04:29:15;4.05;;;1.60;;
67528;SDS011;54366;51.980;5.856;2023-08-17T04:31:48;3.55;;;1.45;;
67528;SDS011;54366;51.980;5.856;2023-08-17T04:37:31;2.05;;;0.90;;
67528;SDS011;54366;51.980;5.856;2023-08-17T04:40:05;4.03;;;1.40;;
67528;SDS011;54366;51.980;5.856;2023-08-17T04:42:39;2.33;;;1.30;;
67528;SDS011;54366;51.980;5.856;2023-08-17T04:45:12;3.33;;;1.38;;
67528;SDS011;54366;51.980;5.856;2023-08-17T04:47:47;2.80;;;0.90;;
67528;SDS011;54366;51.980;5.856;2023-08-17T04:50:20;2.45;;;1.17;;
67528;SDS011;54366;51.980;5.856;2023-08-17T04:52:53;3.00;;;1.23;;
67528;SDS011;54366;51.980;5.856;2023-08-17T04:55:26;2.65;;;1.17;;
67528;SDS011;54366;51.980;5.856;2023-08-17T04:57:59;2.20;;;1.00;;
67528;SDS011;54366;51.980;5.856;2023-08-17T05:00:32;2.10;;;0.82;;
67528;SDS011;54366;51.980;5.856;2023-08-17T05:02:59;3.42;;;1.58;;
67528;SDS011;54366;51.980;5.856;2023-08-17T05:05:36;2.15;;;0.80;;
67528;SDS011;54366;51.980;5.856;2023-08-17T05:08:10;2.90;;;1.05;;
67528;SDS011;54366;51.980;5.856;2023-08-17T05:10:43;1.67;;;0.83;;
67528;SDS011;54366;51.980;5.856;2023-08-17T05:13:10;2.67;;;1.05;;
67528;SDS011;54366;51.980;5.856;2023-08-17T05:15:43;2.97;;;1.00;;
67528;SDS011;54366;51.980;5.856;2023-08-17T05:18:15;3.08;;;1.60;;
67528;SDS011;54366;51.980;5.856;2023-08-17T05:20:43;1.83;;;0.98;;
67528;SDS011;54366;51.980;5.856;2023-08-17T05:23:16;2.75;;;0.80;;
67528;SDS011;54366;51.980;5.856;2023-08-17T05:25:56;3.22;;;1.20;;
67528;SDS011;54366;51.980;5.856;2023-08-17T05:28:37;1.92;;;0.80;;
67528;SDS011;54366;51.980;5.856;2023-08-17T05:31:08;2.40;;;1.10;;
67528;SDS011;54366;51.980;5.856;2023-08-17T05:33:45;3.00;;;0.93;;
67528;SDS011;54366;51.980;5.856;2023-08-17T05:36:22;3.05;;;0.98;;
67528;SDS011;54366;51.980;5.856;2023-08-17T05:38:48;2.42;;;0.80;;
67528;SDS011;54366;51.980;5.856;2023-08-17T05:41:21;5.90;;;1.27;;
67528;SDS011;54366;51.980;5.856;2023-08-17T05:43:54;1.42;;;0.70;;
67528;SDS011;54366;51.980;5.856;2023-08-17T05:46:21;2.47;;;0.70;;
67528;SDS011;54366;51.980;5.856;2023-08-17T05:48:54;2.08;;;0.70;;
67528;SDS011;54366;51.980;5.856;2023-08-17T05:51:27;3.83;;;1.40;;
67528;SDS011;54366;51.980;5.856;2023-08-17T05:53:54;1.67;;;0.88;;
67528;SDS011;54366;51.980;5.856;2023-08-17T05:56:27;2.27;;;1.20;;
67528;SDS011;54366;51.980;5.856;2023-08-17T05:59:00;3.13;;;1.27;;
67528;SDS011;54366;51.980;5.856;2023-08-17T06:01:33;2.58;;;1.05;;
67528;SDS011;54366;51.980;5.856;2023-08-17T06:03:59;2.45;;;1.00;;
67528;SDS011;54366;51.980;5.856;2023-08-17T06:06:32;3.20;;;1.25;;
67528;SDS011;54366;51.980;5.856;2023-08-17T06:09:05;1.88;;;0.80;;
67528;SDS011;54366;51.980;5.856;2023-08-17T06:11:39;5.03;;;1.40;;
67528;SDS011;54366;51.980;5.856;2023-08-17T06:14:12;2.70;;;1.00;;
67528;SDS011;54366;51.980;5.856;2023-08-17T06:16:59;4.03;;;1.60;;
67528;SDS011;54366;51.980;5.856;2023-08-17T06:19:32;4.53;;;1.67;;
67528;SDS011;54366;51.980;5.856;2023-08-17T06:22:12;2.38;;;1.05;;
67528;SDS011;54366;51.980;5.856;2023-08-17T06:24:51;4.10;;;1.25;;
67528;SDS011;54366;51.980;5.856;2023-08-17T06:27:31;4.13;;;1.20;;
67528;SDS011;54366;51.980;5.856;2023-08-17T06:29:59;2.17;;;1.10;;
67528;SDS011;54366;51.980;5.856;2023-08-17T06:32:32;6.00;;;1.43;;
67528;SDS011;54366;51.980;5.856;2023-08-17T06:35:05;2.35;;;1.10;;
67528;SDS011;54366;51.980;5.856;2023-08-17T06:37:32;3.13;;;1.10;;
67528;SDS011;54366;51.980;5.856;2023-08-17T06:40:05;3.38;;;1.38;;
67528;SDS011;54366;51.980;5.856;2023-08-17T06:42:39;1.52;;;1.00;;
67528;SDS011;54366;51.980;5.856;2023-08-17T06:45:06;2.95;;;1.17;;
67528;SDS011;54366;51.980;5.856;2023-08-17T06:47:39;2.38;;;1.30;;
67528;SDS011;54366;51.980;5.856;2023-08-17T06:50:12;2.50;;;1.27;;
67528;SDS011;54366;51.980;5.856;2023-08-17T06:52:45;2.80;;;1.05;;
67528;SDS011;54366;51.980;5.856;2023-08-17T06:55:18;2.35;;;1.15;;
67528;SDS011;54366;51.980;5.856;2023-08-17T06:57:51;3.08;;;1.10;;
67528;SDS011;54366;51.980;5.856;2023-08-17T07:00:24;5.35;;;1.52;;
67528;SDS011;54366;51.980;5.856;2023-08-17T07:02:57;2.90;;;1.17;;
67528;SDS011;54366;51.980;5.856;2023-08-17T07:05:23;2.90;;;1.40;;
67528;SDS011;54366;51.980;5.856;2023-08-17T07:07:56;4.55;;;2.13;;
67528;SDS011;54366;51.980;5.856;2023-08-17T07:10:23;3.28;;;1.35;;
67528;SDS011;54366;51.980;5.856;2023-08-17T07:12:56;1.80;;;1.10;;
67528;SDS011;54366;51.980;5.856;2023-08-17T07:15:32;4.85;;;1.40;;
67528;SDS011;54366;51.980;5.856;2023-08-17T07:18:05;3.38;;;1.40;;
67528;SDS011;54366;51.980;5.856;2023-08-17T07:20:38;5.93;;;1.90;;
67528;SDS011;54366;51.980;5.856;2023-08-17T07:23:04;3.65;;;1.60;;
67528;SDS011;54366;51.980;5.856;2023-08-17T07:25:43;1.83;;;0.98;;
67528;SDS011;54366;51.980;5.856;2023-08-17T07:28:16;3.95;;;1.30;;
67528;SDS011;54366;51.980;5.856;2023-08-17T07:30:42;2.25;;;1.30;;
67528;SDS011;54366;51.980;5.856;2023-08-17T07:33:15;3.97;;;1.30;;
67528;SDS011;54366;51.980;5.856;2023-08-17T07:35:48;2.95;;;1.20;;
67528;SDS011;54366;51.980;5.856;2023-08-17T07:38:21;2.58;;;1.10;;
67528;SDS011;54366;51.980;5.856;2023-08-17T07:40:48;3.35;;;1.40;;
67528;SDS011;54366;51.980;5.856;2023-08-17T07:43:20;2.90;;;1.30;;
67528;SDS011;54366;51.980;5.856;2023-08-17T07:45:52;3.72;;;1.75;;
67528;SDS011;54366;51.980;5.856;2023-08-17T07:48:26;5.95;;;2.05;;
67528;SDS011;54366;51.980;5.856;2023-08-17T07:50:59;3.60;;;1.80;;
67528;SDS011;54366;51.980;5.856;2023-08-17T07:53:25;6.35;;;1.75;;
67528;SDS011;54366;51.980;5.856;2023-08-17T07:55:58;3.13;;;1.50;;
67528;SDS011;54366;51.980;5.856;2023-08-17T07:58:31;5.00;;;1.73;;
67528;SDS011;54366;51.980;5.856;2023-08-17T08:00:58;3.42;;;1.33;;
67528;SDS011;54366;51.980;5.856;2023-08-17T08:03:30;4.53;;;1.75;;
67528;SDS011;54366;51.980;5.856;2023-08-17T08:05:56;2.40;;;1.58;;
67528;SDS011;54366;51.980;5.856;2023-08-17T08:08:29;3.67;;;1.60;;
67528;SDS011;54366;51.980;5.856;2023-08-17T08:11:02;2.38;;;1.20;;
67528;SDS011;54366;51.980;5.856;2023-08-17T08:13:36;4.07;;;1.63;;
67528;SDS011;54366;51.980;5.856;2023-08-17T08:16:09;3.63;;;1.67;;
67528;SDS011;54366;51.980;5.856;2023-08-17T08:18:42;2.60;;;1.38;;
67528;SDS011;54366;51.980;5.856;2023-08-17T08:21:15;4.85;;;1.60;;
67528;SDS011;54366;51.980;5.856;2023-08-17T08:23:48;4.07;;;1.80;;
67528;SDS011;54366;51.980;5.856;2023-08-17T08:26:21;4.50;;;1.67;;
67528;SDS011;54366;51.980;5.856;2023-08-17T08:29:07;4.63;;;1.90;;
67528;SDS011;54366;51.980;5.856;2023-08-17T08:31:40;3.58;;;1.83;;
67528;SDS011;54366;51.980;5.856;2023-08-17T08:34:13;5.88;;;1.98;;
67528;SDS011;54366;51.980;5.856;2023-08-17T08:36:46;4.38;;;1.65;;
67528;SDS011;54366;51.980;5.856;2023-08-17T08:39:14;4.95;;;2.05;;
67528;SDS011;54366;51.980;5.856;2023-08-17T08:41:47;4.47;;;1.70;;
67528;SDS011;54366;51.980;5.856;2023-08-17T08:44:20;4.47;;;1.65;;
67528;SDS011;54366;51.980;5.856;2023-08-17T08:46:53;4.82;;;2.03;;
67528;SDS011;54366;51.980;5.856;2023-08-17T08:49:28;4.82;;;1.83;;
67528;SDS011;54366;51.980;5.856;2023-08-17T08:51:56;3.53;;;1.65;;
67528;SDS011;54366;51.980;5.856;2023-08-17T08:54:32;3.08;;;1.60;;
67528;SDS011;54366;51.980;5.856;2023-08-17T08:57:12;5.07;;;2.20;;
67528;SDS011;54366;51.980;5.856;2023-08-17T08:59:46;5.97;;;2.40;;
67528;SDS011;54366;51.980;5.856;2023-08-17T09:02:14;3.97;;;1.98;;
67528;SDS011;54366;51.980;5.856;2023-08-17T09:04:47;2.95;;;2.08;;
67528;SDS011;54366;51.980;5.856;2023-08-17T09:07:20;4.40;;;2.35;;
67528;SDS011;54366;51.980;5.856;2023-08-17T09:09:58;3.42;;;1.60;;
67528;SDS011;54366;51.980;5.856;2023-08-17T09:12:31;5.47;;;2.90;;
67528;SDS011;54366;51.980;5.856;2023-08-17T09:14:57;4.60;;;2.50;;
67528;SDS011;54366;51.980;5.856;2023-08-17T09:17:31;6.28;;;2.95;;
67528;SDS011;54366;51.980;5.856;2023-08-17T09:20:00;4.07;;;2.25;;
67528;SDS011;54366;51.980;5.856;2023-08-17T09:22:43;3.55;;;2.45;;
67528;SDS011;54366;51.980;5.856;2023-08-17T09:25:21;3.85;;;2.53;;
67528;SDS011;54366;51.980;5.856;2023-08-17T09:28:12;5.25;;;2.97;;
67528;SDS011;54366;51.980;5.856;2023-08-17T09:30:50;4.18;;;2.63;;
67528;SDS011;54366;51.980;5.856;2023-08-17T09:33:27;5.63;;;2.95;;
67528;SDS011;54366;51.980;5.856;2023-08-17T09:36:02;4.82;;;2.78;;
67528;SDS011;54366;51.980;5.856;2023-08-17T09:38:29;4.07;;;2.10;;
67528;SDS011;54366;51.980;5.856;2023-08-17T09:41:01;3.83;;;2.55;;
67528;SDS011;54366;51.980;5.856;2023-08-17T09:43:34;4.32;;;2.70;;
67528;SDS011;54366;51.980;5.856;2023-08-17T09:46:09;3.70;;;2.30;;
67528;SDS011;54366;51.980;5.856;2023-08-17T09:51:19;6.18;;;3.05;;
67528;SDS011;54366;51.980;5.856;2023-08-17T09:53:51;4.38;;;2.45;;
67528;SDS011;54366;51.980;5.856;2023-08-17T09:56:24;4.90;;;3.10;;
67528;SDS011;54366;51.980;5.856;2023-08-17T09:58:53;6.18;;;3.00;;
67528;SDS011;54366;51.980;5.856;2023-08-17T10:01:25;7.05;;;3.60;;
67528;SDS011;54366;51.980;5.856;2023-08-17T10:03:54;7.53;;;3.70;;
67528;SDS011;54366;51.980;5.856;2023-08-17T10:09:02;5.47;;;3.00;;
67528;SDS011;54366;51.980;5.856;2023-08-17T10:11:35;5.67;;;3.43;;
67528;SDS011;54366;51.980;5.856;2023-08-17T10:14:16;5.88;;;4.15;;
67528;SDS011;54366;51.980;5.856;2023-08-17T10:16:57;6.05;;;3.15;;
67528;SDS011;54366;51.980;5.856;2023-08-17T10:19:56;9.20;;;4.63;;
67528;SDS011;54366;51.980;5.856;2023-08-17T10:22:34;6.22;;;4.07;;
67528;SDS011;54366;51.980;5.856;2023-08-17T10:25:16;5.57;;;3.33;;
67528;SDS011;54366;51.980;5.856;2023-08-17T10:27:51;7.35;;;4.15;;
67528;SDS011;54366;51.980;5.856;2023-08-17T10:30:36;6.22;;;3.60;;
67528;SDS011;54366;51.980;5.856;2023-08-17T10:35:42;4.78;;;2.90;;
67528;SDS011;54366;51.980;5.856;2023-08-17T10:41:08;4.28;;;2.78;;
67528;SDS011;54366;51.980;5.856;2023-08-17T10:43:55;6.32;;;3.92;;
67528;SDS011;54366;51.980;5.856;2023-08-17T10:46:32;6.68;;;3.30;;
67528;SDS011;54366;51.980;5.856;2023-08-17T10:49:25;9.07;;;4.20;;
67528;SDS011;54366;51.980;5.856;2023-08-17T10:52:02;6.20;;;3.50;;
67528;SDS011;54366;51.980;5.856;2023-08-17T10:54:41;4.13;;;2.42;;
67528;SDS011;54366;51.980;5.856;2023-08-17T10:57:47;5.53;;;3.10;;
67528;SDS011;54366;51.980;5.856;2023-08-17T11:00:18;7.60;;;3.72;;
67528;SDS011;54366;51.980;5.856;2023-08-17T11:03:04;6.25;;;3.67;;
67528;SDS011;54366;51.980;5.856;2023-08-17T11:05:40;3.58;;;2.80;;
67528;SDS011;54366;51.980;5.856;2023-08-17T11:08:28;4.38;;;3.20;;
67528;SDS011;54366;51.980;5.856;2023-08-17T11:11:09;6.53;;;3.20;;
67528;SDS011;54366;51.980;5.856;2023-08-17T11:13:44;7.95;;;4.18;;
67528;SDS011;54366;51.980;5.856;2023-08-17T11:18:46;6.00;;;4.28;;
67528;SDS011;54366;51.980;5.856;2023-08-17T11:21:20;6.25;;;3.35;;
67528;SDS011;54366;51.980;5.856;2023-08-17T11:23:47;6.85;;;3.75;;
67528;SDS011;54366;51.980;5.856;2023-08-17T11:26:27;6.25;;;3.90;;
67528;SDS011;54366;51.980;5.856;2023-08-17T11:28:59;5.15;;;3.85;;
67528;SDS011;54366;51.980;5.856;2023-08-17T11:31:39;4.28;;;3.55;;
67528;SDS011;54366;51.980;5.856;2023-08-17T11:34:14;4.18;;;3.00;;
67528;SDS011;54366;51.980;5.856;2023-08-17T11:36:40;5.28;;;3.13;;
67528;SDS011;54366;51.980;5.856;2023-08-17T11:39:13;6.05;;;4.10;;
67528;SDS011;54366;51.980;5.856;2023-08-17T11:41:46;6.93;;;3.05;;
67528;SDS011;54366;51.980;5.856;2023-08-17T11:44:14;4.28;;;2.90;;
67528;SDS011;54366;51.980;5.856;2023-08-17T11:46:46;5.70;;;3.08;;
67528;SDS011;54366;51.980;5.856;2023-08-17T11:49:19;5.85;;;3.72;;
67528;SDS011;54366;51.980;5.856;2023-08-17T11:51:52;4.80;;;3.45;;
67528;SDS011;54366;51.980;5.856;2023-08-17T11:54:25;5.93;;;4.03;;
67528;SDS011;54366;51.980;5.856;2023-08-17T11:56:51;3.95;;;3.20;;
67528;SDS011;54366;51.980;5.856;2023-08-17T11:59:24;6.15;;;3.90;;
67528;SDS011;54366;51.980;5.856;2023-08-17T12:02:00;7.45;;;4.13;;
67528;SDS011;54366;51.980;5.856;2023-08-17T12:06:59;5.85;;;3.35;;
67528;SDS011;54366;51.980;5.856;2023-08-17T12:09:32;4.18;;;3.22;;
67528;SDS011;54366;51.980;5.856;2023-08-17T12:12:05;4.85;;;3.00;;
67528;SDS011;54366;51.980;5.856;2023-08-17T12:14:32;4.20;;;3.40;;
67528;SDS011;54366;51.980;5.856;2023-08-17T12:17:05;4.28;;;3.20;;
67528;SDS011;54366;51.980;5.856;2023-08-17T12:19:38;4.47;;;3.10;;
67528;SDS011;54366;51.980;5.856;2023-08-17T12:22:12;6.03;;;2.97;;
67528;SDS011;54366;51.980;5.856;2023-08-17T12:24:39;5.63;;;2.85;;
67528;SDS011;54366;51.980;5.856;2023-08-17T12:27:19;4.82;;;3.30;;
67528;SDS011;54366;51.980;5.856;2023-08-17T12:30:01;5.25;;;3.22;;
67528;SDS011;54366;51.980;5.856;2023-08-17T12:32:28;3.25;;;2.67;;
67528;SDS011;54366;51.980;5.856;2023-08-17T12:35:00;5.10;;;3.95;;
67528;SDS011;54366;51.980;5.856;2023-08-17T12:37:33;6.65;;;3.50;;
67528;SDS011;54366;51.980;5.856;2023-08-17T12:39:59;3.67;;;3.20;;
67528;SDS011;54366;51.980;5.856;2023-08-17T12:42:32;5.15;;;3.67;;
67528;SDS011;54366;51.980;5.856;2023-08-17T12:45:05;5.25;;;4.03;;
67528;SDS011;54366;51.980;5.856;2023-08-17T12:47:32;5.75;;;3.83;;
67528;SDS011;54366;51.980;5.856;2023-08-17T12:50:05;4.73;;;3.17;;
67528;SDS011;54366;51.980;5.856;2023-08-17T12:52:38;3.50;;;2.85;;
67528;SDS011;54366;51.980;5.856;2023-08-17T12:55:05;4.40;;;3.65;;
67528;SDS011;54366;51.980;5.856;2023-08-17T12:57:37;5.03;;;4.07;;
67528;SDS011;54366;51.980;5.856;2023-08-17T13:00:10;5.78;;;3.45;;
67528;SDS011;54366;51.980;5.856;2023-08-17T13:02:43;5.57;;;3.55;;
67528;SDS011;54366;51.980;5.856;2023-08-17T13:05:18;5.07;;;3.60;;
67528;SDS011;54366;51.980;5.856;2023-08-17T13:07:45;3.72;;;3.08;;
67528;SDS011;54366;51.980;5.856;2023-08-17T13:10:17;4.18;;;3.08;;
67528;SDS011;54366;51.980;5.856;2023-08-17T13:12:44;5.72;;;4.55;;
67528;SDS011;54366;51.980;5.856;2023-08-17T13:15:16;5.75;;;5.15;;
67528;SDS011;54366;51.980;5.856;2023-08-17T13:17:49;5.65;;;3.50;;
67528;SDS011;54366;51.980;5.856;2023-08-17T13:20:22;3.95;;;3.15;;
67528;SDS011;54366;51.980;5.856;2023-08-17T13:22:55;3.38;;;3.08;;
67528;SDS011;54366;51.980;5.856;2023-08-17T13:25:28;4.50;;;3.10;;
67528;SDS011;54366;51.980;5.856;2023-08-17T13:28:08;4.55;;;3.83;;
67528;SDS011;54366;51.980;5.856;2023-08-17T13:30:40;4.05;;;3.13;;
67528;SDS011;54366;51.980;5.856;2023-08-17T13:33:13;3.97;;;3.10;;
67528;SDS011;54366;51.980;5.856;2023-08-17T13:35:42;4.28;;;3.05;;
67528;SDS011;54366;51.980;5.856;2023-08-17T13:38:14;4.43;;;2.92;;
67528;SDS011;54366;51.980;5.856;2023-08-17T13:40:47;5.95;;;4.03;;
67528;SDS011;54366;51.980;5.856;2023-08-17T13:43:20;4.63;;;3.20;;
67528;SDS011;54366;51.980;5.856;2023-08-17T13:45:47;5.38;;;4.13;;
67528;SDS011;54366;51.980;5.856;2023-08-17T13:48:19;5.97;;;3.85;;
67528;SDS011;54366;51.980;5.856;2023-08-17T13:50:46;7.93;;;3.92;;
67528;SDS011;54366;51.980;5.856;2023-08-17T13:53:18;7.57;;;4.85;;
67528;SDS011;54366;51.980;5.856;2023-08-17T13:55:51;4.70;;;3.70;;
67528;SDS011;54366;51.980;5.856;2023-08-17T13:58:24;4.55;;;4.13;;
67528;SDS011;54366;51.980;5.856;2023-08-17T14:00:51;4.70;;;3.60;;
67528;SDS011;54366;51.980;5.856;2023-08-17T14:03:23;7.43;;;4.40;;
67528;SDS011;54366;51.980;5.856;2023-08-17T14:05:50;3.50;;;3.20;;
67528;SDS011;54366;51.980;5.856;2023-08-17T14:08:22;6.57;;;3.83;;
67528;SDS011;54366;51.980;5.856;2023-08-17T14:10:55;4.75;;;3.38;;
67528;SDS011;54366;51.980;5.856;2023-08-17T14:13:22;4.78;;;3.30;;
67528;SDS011;54366;51.980;5.856;2023-08-17T14:15:54;3.85;;;3.20;;
67528;SDS011;54366;51.980;5.856;2023-08-17T14:18:29;4.45;;;3.33;;
67528;SDS011;54366;51.980;5.856;2023-08-17T14:21:02;3.88;;;3.47;;
67528;SDS011;54366;51.980;5.856;2023-08-17T14:23:35;3.55;;;3.25;;
67528;SDS011;54366;51.980;5.856;2023-08-17T14:26:08;4.23;;;3.83;;
67528;SDS011;54366;51.980;5.856;2023-08-17T14:28:55;4.72;;;3.67;;
67528;SDS011;54366;51.980;5.856;2023-08-17T14:31:34;5.30;;;4.80;;
67528;SDS011;54366;51.980;5.856;2023-08-17T14:34:07;3.55;;;3.25;;
67528;SDS011;54366;51.980;5.856;2023-08-17T14:36:33;3.50;;;2.92;;
67528;SDS011;54366;51.980;5.856;2023-08-17T14:39:06;5.10;;;3.42;;
67528;SDS011;54366;51.980;5.856;2023-08-17T14:41:33;2.75;;;2.47;;
67528;SDS011;54366;51.980;5.856;2023-08-17T14:44:05;4.07;;;3.30;;
67528;SDS011;54366;51.980;5.856;2023-08-17T14:46:38;2.80;;;2.60;;
67528;SDS011;54366;51.980;5.856;2023-08-17T14:49:11;5.57;;;4.95;;
67528;SDS011;54366;51.980;5.856;2023-08-17T14:51:44;4.60;;;4.13;;
67528;SDS011;54366;51.980;5.856;2023-08-17T14:54:17;5.38;;;4.15;;
67528;SDS011;54366;51.980;5.856;2023-08-17T14:56:51;4.22;;;3.83;;
67528;SDS011;54366;51.980;5.856;2023-08-17T14:59:23;3.72;;;3.40;;
67528;SDS011;54366;51.980;5.856;2023-08-17T15:01:56;5.05;;;3.72;;
67528;SDS011;54366;51.980;5.856;2023-08-17T15:04:29;5.13;;;4.27;;
67528;SDS011;54366;51.980;5.856;2023-08-17T15:06:56;4.85;;;4.32;;
67528;SDS011;54366;51.980;5.856;2023-08-17T15:09:28;4.03;;;3.63;;
67528;SDS011;54366;51.980;5.856;2023-08-17T15:12:01;4.07;;;3.70;;
67528;SDS011;54366;51.980;5.856;2023-08-17T15:14:34;4.38;;;3.97;;
67528;SDS011;54366;51.980;5.856;2023-08-17T15:17:07;4.90;;;4.38;;
67528;SDS011;54366;51.980;5.856;2023-08-17T15:19:44;4.63;;;4.00;;
67528;SDS011;54366;51.980;5.856;2023-08-17T15:22:17;3.97;;;3.40;;
67528;SDS011;54366;51.980;5.856;2023-08-17T15:24:45;5.50;;;5.00;;
67528;SDS011;54366;51.980;5.856;2023-08-17T15:27:18;5.57;;;4.72;;
67528;SDS011;54366;51.980;5.856;2023-08-17T15:29:58;4.22;;;3.72;;
67528;SDS011;54366;51.980;5.856;2023-08-17T15:32:30;4.20;;;3.80;;
67528;SDS011;54366;51.980;5.856;2023-08-17T15:35:04;5.00;;;4.45;;
67528;SDS011;54366;51.980;5.856;2023-08-17T15:37:31;6.32;;;4.70;;
67528;SDS011;54366;51.980;5.856;2023-08-17T15:40:04;5.45;;;4.95;;
67528;SDS011;54366;51.980;5.856;2023-08-17T15:45:04;4.82;;;4.13;;
67528;SDS011;54366;51.980;5.856;2023-08-17T15:47:36;4.30;;;4.00;;